Terminal Aerodrome Forecast
Issued by NWS Sioux Falls, SD

Home | Current Version | Previous Version | Text Only | Print | Product List | Glossary On
Versions: 1 2 3 4 5 6 7 8 9 10 11 12 13 14 15
000
FTUS43 KFSD 301704 AAA
TAFHON
TAF AMD
KHON 301704Z 3017/3112 VRB05KT P6SM OVC015
     FM301900 VRB04KT P6SM SCT025
     FM302200 14008KT P6SM SCT040
     FM310100 13012KT P6SM SCT060
     FM310500 15013G19KT P6SM SCT005 BKN100=

USA.gov is the U.S. government's official web portal to all federal, state and local government web resources and services.